createdAt,value
2022-10-06T00:01:17.197Z,43.31
2022-10-06T00:03:46.250Z,43.47
2022-10-06T00:06:17.133Z,43.57
2022-10-06T00:08:46.266Z,43.45
2022-10-06T00:11:16.250Z,43.53
2022-10-06T00:13:44.456Z,43.64
2022-10-06T00:16:17.566Z,43.54
2022-10-06T00:18:45.682Z,43.71
2022-10-06T00:21:13.922Z,43.32
2022-10-06T00:23:41.856Z,43.68
2022-10-06T00:26:17.287Z,43.70
2022-10-06T00:28:49.141Z,43.70
2022-10-06T00:31:19.546Z,43.54
2022-10-06T00:33:49.671Z,43.62
2022-10-06T00:36:17.770Z,43.58
2022-10-06T00:38:45.972Z,43.60
2022-10-06T00:41:16.750Z,43.69
2022-10-06T00:43:47.200Z,43.76
2022-10-06T00:46:46.500Z,43.76
2022-10-06T00:49:35.094Z,43.71
2022-10-06T00:52:08.888Z,43.65
2022-10-06T00:54:36.934Z,43.67
2022-10-06T00:57:06.187Z,43.72
2022-10-06T00:59:35.500Z,43.81
2022-10-06T01:02:09.078Z,44.02
2022-10-06T01:04:41.851Z,44.30
2022-10-06T01:07:10.160Z,44.24
2022-10-06T01:09:38.664Z,44.44
2022-10-06T01:12:08.434Z,44.38
2022-10-06T01:14:39.303Z,44.62
2022-10-06T01:17:16.772Z,44.61
2022-10-06T01:20:11.474Z,44.93
2022-10-06T01:22:48.782Z,45.03
2022-10-06T01:25:18.882Z,45.37
2022-10-06T01:27:53.713Z,45.45
2022-10-06T01:30:39.140Z,45.59
2022-10-06T01:33:07.322Z,45.72
2022-10-06T01:35:35.190Z,45.82
2022-10-06T01:38:02.959Z,45.98
2022-10-06T01:40:31.762Z,46.15
2022-10-06T01:43:02.059Z,46.29
2022-10-06T01:45:30.495Z,46.48
2022-10-06T01:47:58.563Z,46.52
2022-10-06T01:50:26.653Z,46.56
2022-10-06T01:52:57.415Z,46.96
2022-10-06T01:55:25.966Z,47.03
2022-10-06T01:57:54.790Z,47.18
2022-10-06T02:00:22.848Z,47.12
2022-10-06T02:02:50.886Z,47.26
2022-10-06T02:05:18.811Z,47.32
2022-10-06T02:07:50.954Z,47.60
2022-10-06T02:10:18.740Z,47.69
2022-10-06T02:12:54.079Z,47.68
2022-10-06T02:15:23.535Z,47.74
2022-10-06T02:17:52.889Z,47.81
2022-10-06T02:20:21.307Z,47.89
2022-10-06T02:22:50.864Z,48.08
2022-10-06T02:25:18.797Z,47.95
2022-10-06T02:27:46.669Z,48.20
2022-10-06T02:30:15.964Z,48.40
2022-10-06T02:32:45.075Z,48.28
2022-10-06T02:35:13.065Z,48.26
2022-10-06T02:37:42.204Z,48.40
2022-10-06T02:40:12.172Z,48.38
2022-10-06T02:42:39.939Z,48.35
2022-10-06T02:45:09.184Z,48.36
2022-10-06T02:47:38.423Z,48.51
2022-10-06T02:50:07.883Z,48.58
2022-10-06T02:52:41.146Z,48.59
2022-10-06T02:55:10.270Z,48.65
2022-10-06T02:57:38.263Z,48.46
2022-10-06T03:00:08.633Z,48.67
2022-10-06T03:02:36.777Z,48.55
2022-10-06T03:05:05.927Z,48.61
2022-10-06T03:07:34.923Z,48.85
2022-10-06T03:10:02.815Z,48.66
2022-10-06T03:12:31.005Z,48.96
2022-10-06T03:14:59.082Z,49.10
2022-10-06T03:17:27.102Z,49.42
2022-10-06T03:19:58.035Z,49.91
2022-10-06T03:22:26.658Z,49.85
2022-10-06T03:24:56.846Z,51.17
2022-10-06T03:27:25.506Z,51.53
2022-10-06T03:29:56.791Z,52.69
2022-10-06T03:32:26.364Z,53.67
2022-10-06T03:34:54.206Z,53.15
2022-10-06T03:37:22.913Z,54.01
2022-10-06T03:39:51.705Z,54.29
2022-10-06T03:42:19.991Z,54.92
2022-10-06T03:44:48.313Z,54.45
2022-10-06T03:47:17.416Z,54.25
2022-10-06T03:49:46.619Z,54.71
2022-10-06T03:52:16.321Z,55.39
2022-10-06T03:54:44.154Z,54.92
2022-10-06T03:57:12.100Z,55.08
2022-10-06T03:59:40.125Z,55.93
2022-10-06T04:02:08.075Z,55.28
2022-10-06T04:04:38.574Z,55.70
2022-10-06T04:07:11.223Z,56.16
2022-10-06T04:09:39.874Z,55.80
2022-10-06T04:12:09.294Z,56.11
2022-10-06T04:14:38.754Z,55.62
2022-10-06T04:17:08.177Z,55.68
2022-10-06T04:19:37.860Z,55.28
2022-10-06T04:22:05.654Z,54.90
2022-10-06T04:24:34.610Z,55.04
2022-10-06T04:27:21.874Z,54.78
2022-10-06T04:29:59.213Z,54.96
2022-10-06T04:32:27.417Z,54.51
2022-10-06T04:34:55.791Z,55.01
2022-10-06T04:37:25.179Z,54.41
2022-10-06T04:39:53.013Z,55.05
2022-10-06T04:42:20.901Z,55.41
2022-10-06T04:44:48.657Z,55.19
2022-10-06T04:47:16.462Z,55.34
2022-10-06T04:49:44.667Z,55.10
2022-10-06T04:52:12.772Z,55.22
2022-10-06T04:54:42.097Z,55.94
2022-10-06T04:57:10.382Z,55.85
2022-10-06T04:59:59.490Z,56.24
2022-10-06T05:02:32.182Z,56.08
2022-10-06T05:04:59.947Z,56.19
2022-10-06T05:07:28.389Z,56.13
2022-10-06T05:09:58.277Z,56.06
2022-10-06T05:12:26.287Z,55.87
2022-10-06T05:14:54.597Z,56.31
2022-10-06T05:17:22.710Z,56.22
2022-10-06T05:19:52.279Z,56.00
2022-10-06T05:22:20.661Z,56.16
2022-10-06T05:24:53.650Z,55.61
2022-10-06T05:27:21.619Z,56.44
2022-10-06T05:29:49.425Z,56.05
2022-10-06T05:32:17.190Z,55.99
2022-10-06T05:34:44.969Z,55.83
2022-10-06T05:37:12.735Z,55.65
2022-10-06T05:39:40.637Z,55.41
2022-10-06T05:42:08.412Z,55.34
2022-10-06T05:44:36.135Z,55.37
2022-10-06T05:47:08.659Z,55.35
2022-10-06T05:49:36.420Z,55.73
2022-10-06T05:52:05.561Z,56.42
2022-10-06T05:54:36.236Z,56.53
2022-10-06T05:57:04.268Z,56.33
2022-10-06T05:59:34.326Z,55.83
2022-10-06T06:02:04.004Z,55.82
2022-10-06T06:04:36.049Z,56.47
2022-10-06T06:07:03.806Z,56.16
2022-10-06T06:09:31.669Z,56.06
2022-10-06T06:12:01.310Z,55.90
2022-10-06T06:15:16.954Z,55.85
2022-10-06T06:17:50.139Z,55.48
2022-10-06T06:20:17.893Z,55.73
2022-10-06T06:22:45.691Z,56.09
2022-10-06T06:25:13.462Z,55.88
2022-10-06T06:27:43.583Z,56.35
2022-10-06T06:30:12.248Z,56.42
2022-10-06T06:32:40.714Z,55.92
2022-10-06T06:35:09.456Z,55.80
2022-10-06T06:37:38.147Z,56.09
2022-10-06T06:40:07.364Z,56.13
2022-10-06T06:42:38.339Z,56.34
2022-10-06T06:45:26.526Z,56.46
2022-10-06T06:48:02.364Z,56.71
2022-10-06T06:50:31.736Z,56.80
2022-10-06T06:53:02.485Z,56.94
2022-10-06T06:55:31.774Z,57.04
2022-10-06T06:58:00.726Z,57.38
2022-10-06T07:00:32.537Z,56.71
2022-10-06T07:03:03.343Z,57.34
2022-10-06T07:05:32.917Z,56.28
2022-10-06T07:08:00.667Z,56.01
2022-10-06T07:10:28.395Z,55.97
2022-10-06T07:12:56.480Z,55.76
2022-10-06T07:15:43.162Z,55.25
2022-10-06T07:18:29.952Z,54.91
2022-10-06T07:21:16.567Z,54.83
2022-10-06T07:24:05.346Z,54.74
2022-10-06T07:26:33.164Z,54.24
2022-10-06T07:29:00.929Z,54.56
2022-10-06T07:31:33.359Z,54.58
2022-10-06T07:34:04.134Z,54.18
2022-10-06T07:36:32.565Z,54.12
2022-10-06T07:39:01.222Z,53.96
2022-10-06T07:41:31.589Z,54.42
2022-10-06T07:44:07.961Z,53.87
2022-10-06T07:46:36.835Z,53.58
2022-10-06T07:49:12.108Z,53.63
2022-10-06T07:51:40.018Z,53.28
2022-10-06T07:54:08.924Z,53.26
2022-10-06T07:56:59.494Z,53.03
2022-10-06T07:59:27.258Z,52.86
2022-10-06T08:01:55.022Z,52.66
2022-10-06T08:04:22.821Z,52.55
2022-10-06T08:06:50.660Z,52.19
2022-10-06T08:09:18.477Z,52.27
2022-10-06T08:11:47.402Z,51.88
2022-10-06T08:14:15.209Z,52.22
2022-10-06T08:16:42.938Z,52.27
2022-10-06T08:19:11.703Z,52.25
2022-10-06T08:21:39.824Z,51.90
2022-10-06T08:24:07.586Z,52.24
2022-10-06T08:26:35.967Z,52.52
2022-10-06T08:29:03.825Z,52.18
2022-10-06T08:31:32.740Z,52.73
2022-10-06T08:34:01.482Z,52.32
2022-10-06T08:36:31.862Z,52.26
2022-10-06T08:39:01.314Z,52.15
2022-10-06T08:41:48.524Z,52.01
2022-10-06T08:45:03.069Z,52.03
2022-10-06T08:47:35.952Z,51.61
2022-10-06T08:50:11.285Z,51.40
2022-10-06T08:52:58.538Z,51.04
2022-10-06T08:56:08.452Z,50.95
2022-10-06T08:59:05.384Z,50.97
2022-10-06T09:01:51.359Z,50.31
2022-10-06T09:04:30.554Z,50.18
2022-10-06T09:07:21.282Z,49.90
2022-10-06T09:10:07.531Z,50.33
2022-10-06T09:13:00.951Z,50.05
2022-10-06T09:15:39.060Z,50.08
2022-10-06T09:18:13.392Z,50.10
2022-10-06T09:21:11.643Z,49.83
2022-10-06T09:23:48.898Z,49.77
2022-10-06T09:26:43.358Z,49.68
2022-10-06T09:29:12.110Z,49.71
2022-10-06T09:31:43.505Z,49.53
2022-10-06T09:34:36.139Z,48.98
2022-10-06T09:37:09.072Z,49.79
2022-10-06T09:39:49.559Z,48.74
2022-10-06T09:42:23.067Z,48.77
2022-10-06T09:44:51.319Z,48.67
2022-10-06T09:47:34.801Z,48.58
2022-10-06T09:50:12.524Z,48.00
2022-10-06T09:53:05.714Z,48.47
2022-10-06T09:55:39.519Z,47.89
2022-10-06T09:58:26.208Z,47.73
2022-10-06T10:00:57.038Z,47.49
2022-10-06T10:03:26.799Z,47.94
2022-10-06T10:05:55.377Z,47.76
2022-10-06T10:08:30.909Z,47.63
2022-10-06T10:11:47.333Z,47.81
2022-10-06T10:14:19.679Z,47.42
2022-10-06T10:16:53.088Z,47.38
2022-10-06T10:19:33.656Z,46.74
2022-10-06T10:22:02.840Z,46.87
2022-10-06T10:25:22.516Z,46.24
2022-10-06T10:28:15.743Z,46.54
2022-10-06T10:31:11.327Z,46.61
2022-10-06T10:34:28.540Z,46.43
2022-10-06T10:37:04.450Z,45.92
2022-10-06T10:39:42.110Z,45.31
2022-10-06T10:42:28.734Z,45.35
2022-10-06T10:45:19.142Z,45.23
2022-10-06T10:47:49.204Z,45.87
2022-10-06T10:50:33.942Z,45.40
2022-10-06T10:53:23.978Z,45.33
2022-10-06T10:55:53.470Z,45.04
2022-10-06T10:58:41.833Z,44.71
2022-10-06T11:01:41.753Z,44.51
2022-10-06T11:04:13.499Z,44.79
2022-10-06T11:07:27.051Z,44.63
2022-10-06T11:10:15.997Z,44.59
2022-10-06T11:13:33.207Z,44.31
2022-10-06T11:16:30.477Z,43.77
2022-10-06T11:19:09.136Z,44.25
2022-10-06T11:22:00.401Z,44.01
2022-10-06T11:24:36.540Z,44.10
2022-10-06T11:27:18.410Z,43.79
2022-10-06T11:30:13.927Z,43.58
2022-10-06T11:33:10.609Z,43.71
2022-10-06T11:35:43.227Z,43.79
2022-10-06T11:38:42.434Z,44.30
2022-10-06T11:41:26.114Z,44.02
2022-10-06T11:44:06.615Z,44.21
2022-10-06T11:47:10.341Z,43.50
2022-10-06T11:49:52.350Z,43.83
2022-10-06T11:52:20.051Z,43.73
2022-10-06T11:54:52.442Z,43.76
2022-10-06T11:57:25.095Z,43.69
2022-10-06T12:00:17.477Z,43.67
2022-10-06T12:02:47.037Z,43.59
2022-10-06T12:08:02.535Z,43.03
2022-10-06T12:10:30.165Z,42.67
2022-10-06T12:14:01.531Z,42.73
2022-10-06T12:19:40.458Z,42.29
2022-10-06T12:22:31.334Z,42.12
2022-10-06T12:25:31.673Z,42.28
2022-10-06T12:28:27.402Z,42.63
2022-10-06T12:31:37.420Z,42.25
2022-10-06T12:34:40.262Z,42.88
2022-10-06T12:37:22.208Z,42.56
2022-10-06T12:39:49.891Z,42.66
2022-10-06T12:42:25.064Z,42.57
2022-10-06T12:44:53.547Z,41.97
2022-10-06T12:47:37.540Z,42.27
2022-10-06T12:50:22.789Z,42.27
2022-10-06T12:53:05.546Z,41.46
2022-10-06T12:55:49.990Z,40.54
2022-10-06T12:58:29.035Z,40.95
2022-10-06T13:01:09.635Z,40.59
2022-10-06T13:03:38.957Z,40.65
2022-10-06T13:06:09.082Z,41.28
2022-10-06T13:08:39.801Z,41.68
2022-10-06T13:11:24.408Z,41.77
2022-10-06T13:14:08.026Z,41.92
2022-10-06T13:16:40.977Z,41.78
2022-10-06T13:19:29.359Z,41.90
2022-10-06T13:21:57.288Z,42.51
2022-10-06T13:24:27.453Z,41.80
2022-10-06T13:26:56.216Z,42.16
2022-10-06T13:29:27.509Z,42.35
2022-10-06T13:31:56.791Z,42.50
2022-10-06T13:34:38.525Z,42.33
2022-10-06T13:37:06.512Z,42.88
2022-10-06T13:39:34.532Z,42.73
2022-10-06T13:42:10.688Z,42.79
2022-10-06T13:45:04.989Z,42.97
2022-10-06T13:47:34.581Z,42.46
2022-10-06T13:50:18.787Z,42.42
2022-10-06T13:52:48.995Z,42.49
2022-10-06T13:55:26.114Z,41.89
2022-10-06T13:58:05.170Z,41.13
2022-10-06T14:01:01.013Z,41.70
2022-10-06T14:06:22.289Z,42.01
2022-10-06T14:08:54.664Z,41.79
2022-10-06T14:11:29.037Z,41.70
2022-10-06T14:14:01.295Z,41.88
2022-10-06T14:16:30.153Z,41.90
2022-10-06T14:19:01.271Z,41.50
2022-10-06T14:21:32.051Z,40.99
2022-10-06T14:24:04.846Z,41.28
2022-10-06T14:26:37.775Z,41.32
2022-10-06T14:29:05.594Z,41.39
2022-10-06T14:31:34.099Z,41.11
2022-10-06T14:34:04.124Z,40.18
2022-10-06T14:36:37.241Z,40.42
2022-10-06T14:39:07.759Z,40.92
2022-10-06T14:41:35.577Z,41.14
2022-10-06T14:44:10.269Z,40.94
2022-10-06T14:46:39.975Z,40.89
2022-10-06T14:49:10.574Z,40.62
2022-10-06T14:51:40.363Z,41.09
2022-10-06T14:54:10.227Z,40.79
2022-10-06T14:56:39.768Z,41.23
2022-10-06T14:59:10.684Z,41.19
2022-10-06T15:01:42.736Z,41.00
2022-10-06T15:04:14.505Z,40.82
2022-10-06T15:07:01.949Z,41.27
2022-10-06T15:09:31.202Z,41.52
2022-10-06T15:12:00.255Z,41.22
2022-10-06T15:14:29.626Z,41.04
2022-10-06T15:17:00.861Z,40.51
2022-10-06T15:19:28.676Z,40.63
2022-10-06T15:21:56.553Z,39.94
2022-10-06T15:24:24.284Z,39.95
2022-10-06T15:27:10.430Z,39.89
2022-10-06T15:29:38.222Z,39.73
2022-10-06T15:32:06.831Z,39.99
2022-10-06T15:34:37.629Z,39.59
2022-10-06T15:37:06.114Z,40.05
2022-10-06T15:39:36.713Z,40.14
2022-10-06T15:42:04.820Z,40.55
2022-10-06T15:44:34.874Z,40.47
2022-10-06T15:47:05.986Z,41.15
2022-10-06T15:49:38.264Z,41.33
2022-10-06T15:52:06.723Z,41.58
2022-10-06T15:54:38.601Z,41.35
2022-10-06T15:57:12.159Z,41.73
2022-10-06T15:59:41.769Z,41.41
2022-10-06T16:02:15.961Z,41.41
2022-10-06T16:04:45.698Z,40.83
2022-10-06T16:07:20.775Z,41.19
2022-10-06T16:09:55.425Z,41.02
2022-10-06T16:12:29.150Z,41.48
2022-10-06T16:15:00.851Z,41.41
2022-10-06T16:17:29.310Z,41.14
2022-10-06T16:20:01.003Z,41.14
2022-10-06T16:22:32.627Z,41.45
2022-10-06T16:25:01.066Z,41.34
2022-10-06T16:27:33.338Z,41.59
2022-10-06T16:30:02.070Z,41.52
2022-10-06T16:32:33.468Z,41.47
2022-10-06T16:35:01.870Z,41.66
2022-10-06T16:37:30.402Z,41.58
2022-10-06T16:39:58.860Z,41.71
2022-10-06T16:42:30.270Z,41.36
2022-10-06T16:44:58.814Z,41.61
2022-10-06T16:47:26.652Z,41.71
2022-10-06T16:49:54.531Z,41.71
2022-10-06T16:52:30.759Z,41.44
2022-10-06T16:55:02.078Z,41.82
2022-10-06T16:57:30.241Z,41.96
2022-10-06T17:00:00.409Z,41.71
2022-10-06T17:05:17.413Z,41.83
2022-10-06T17:07:45.790Z,42.07
2022-10-06T17:10:20.621Z,42.17
2022-10-06T17:12:48.880Z,42.05
2022-10-06T17:15:27.348Z,42.18
2022-10-06T17:17:58.976Z,41.96
2022-10-06T17:20:27.333Z,41.96
2022-10-06T17:22:55.332Z,42.13
2022-10-06T17:25:23.231Z,42.27
2022-10-06T17:27:51.207Z,42.28
2022-10-06T17:30:19.080Z,42.06
2022-10-06T17:32:47.457Z,42.27
2022-10-06T17:35:15.569Z,42.37
2022-10-06T17:37:43.766Z,42.60
2022-10-06T17:40:11.610Z,42.77
2022-10-06T17:42:39.646Z,42.89
2022-10-06T17:45:08.370Z,42.96
2022-10-06T17:47:36.975Z,43.10
2022-10-06T17:50:05.354Z,42.83
2022-10-06T17:52:35.612Z,43.38
2022-10-06T17:55:03.856Z,43.43
2022-10-06T17:57:31.852Z,43.37
2022-10-06T17:59:59.718Z,43.40
2022-10-06T18:02:28.154Z,43.75
2022-10-06T18:04:56.276Z,43.53
2022-10-06T18:07:24.174Z,43.56
2022-10-06T18:10:12.795Z,43.58
2022-10-06T18:12:41.008Z,43.55
2022-10-06T18:15:12.834Z,43.37
2022-10-06T18:17:42.526Z,43.28
2022-10-06T18:20:12.202Z,42.93
2022-10-06T18:22:41.360Z,42.99
2022-10-06T18:25:16.876Z,43.14
2022-10-06T18:27:47.810Z,43.42
2022-10-06T18:30:15.770Z,43.56
2022-10-06T18:38:21.082Z,43.07
2022-10-06T18:41:02.312Z,43.22
2022-10-06T18:43:31.123Z,43.56
2022-10-06T18:46:22.067Z,43.71
2022-10-06T18:48:58.822Z,43.69
2022-10-06T18:51:33.994Z,43.82
2022-10-06T18:54:06.697Z,43.56
2022-10-06T18:56:38.179Z,43.28
2022-10-06T18:59:13.158Z,43.68
2022-10-06T19:01:44.914Z,43.62
2022-10-06T19:04:16.850Z,43.42
2022-10-06T19:06:50.080Z,43.48
2022-10-06T19:09:21.130Z,43.43
2022-10-06T19:11:56.579Z,44.00
2022-10-06T19:14:37.975Z,43.76
2022-10-06T19:17:13.782Z,43.64
2022-10-06T19:19:51.225Z,43.94
2022-10-06T19:22:23.909Z,43.75
2022-10-06T19:24:52.340Z,44.05
2022-10-06T19:27:25.585Z,43.91
2022-10-06T19:29:56.638Z,44.23
2022-10-06T19:32:32.154Z,44.45
2022-10-06T19:35:00.754Z,44.46
2022-10-06T19:37:31.253Z,44.52
2022-10-06T19:39:59.019Z,44.65
2022-10-06T19:42:45.738Z,45.03
2022-10-06T19:45:15.476Z,45.03
2022-10-06T19:47:44.825Z,45.15
2022-10-06T19:50:13.607Z,45.39
2022-10-06T19:52:42.047Z,45.42
2022-10-06T19:55:09.804Z,45.59
2022-10-06T19:57:37.633Z,45.73
2022-10-06T20:00:06.945Z,45.61
2022-10-06T20:02:43.299Z,45.91
2022-10-06T20:05:15.163Z,45.71
2022-10-06T20:07:45.553Z,45.89
2022-10-06T20:10:15.039Z,46.11
2022-10-06T20:12:42.829Z,46.28
2022-10-06T20:15:12.765Z,46.32
2022-10-06T20:17:42.349Z,46.87
2022-10-06T20:20:11.374Z,47.15
2022-10-06T20:22:39.401Z,47.19
2022-10-06T20:25:08.035Z,47.31
2022-10-06T20:27:36.759Z,47.20
2022-10-06T20:30:05.179Z,47.59
2022-10-06T20:32:32.917Z,47.50
2022-10-06T20:35:01.927Z,47.62
2022-10-06T20:37:29.700Z,47.60
2022-10-06T20:40:16.225Z,47.43
2022-10-06T20:42:49.166Z,47.67
2022-10-06T20:45:17.126Z,47.38
2022-10-06T20:47:45.654Z,47.49
2022-10-06T20:50:14.303Z,47.34
2022-10-06T20:52:42.058Z,47.54
2022-10-06T20:55:09.870Z,47.46
2022-10-06T20:57:37.753Z,47.64
2022-10-06T21:00:07.501Z,47.66
2022-10-06T21:02:35.485Z,47.45
2022-10-06T21:05:03.512Z,47.49
2022-10-06T21:07:31.458Z,47.22
2022-10-06T21:09:59.306Z,47.31
2022-10-06T21:12:27.407Z,47.06
2022-10-06T21:14:57.047Z,47.13
2022-10-06T21:17:25.032Z,47.16
2022-10-06T21:19:53.137Z,47.26
2022-10-06T21:22:21.073Z,47.00
2022-10-06T21:24:48.945Z,46.99
2022-10-06T21:27:18.505Z,47.02
2022-10-06T21:29:46.425Z,47.40
2022-10-06T21:32:14.323Z,47.22
2022-10-06T21:34:42.172Z,47.33
2022-10-06T21:37:10.548Z,47.56
2022-10-06T21:39:38.373Z,47.83
2022-10-06T21:42:06.251Z,48.13
2022-10-06T21:44:34.096Z,48.30
2022-10-06T21:47:02.783Z,48.17
2022-10-06T21:49:30.814Z,48.28
2022-10-06T21:52:03.613Z,48.25
2022-10-06T21:54:31.857Z,48.23
2022-10-06T21:56:59.786Z,48.41
2022-10-06T21:59:28.198Z,48.60
2022-10-06T22:01:56.962Z,48.40
2022-10-06T22:04:25.209Z,48.69
2022-10-06T22:06:53.097Z,48.50
2022-10-06T22:09:22.134Z,48.46
2022-10-06T22:11:50.354Z,48.67
2022-10-06T22:14:19.581Z,48.71
2022-10-06T22:16:47.510Z,48.60
2022-10-06T22:19:16.526Z,48.86
2022-10-06T22:21:48.041Z,48.61
2022-10-06T22:24:21.190Z,48.95
2022-10-06T22:26:50.093Z,48.87
2022-10-06T22:29:20.185Z,49.04
2022-10-06T22:31:49.099Z,49.01
2022-10-06T22:34:20.749Z,48.90
2022-10-06T22:36:49.033Z,48.89
2022-10-06T22:39:17.744Z,48.82
2022-10-06T22:41:45.690Z,48.87
2022-10-06T22:44:13.744Z,48.85
2022-10-06T22:46:41.743Z,48.90
2022-10-06T22:49:09.893Z,48.90
2022-10-06T22:51:37.735Z,48.52
2022-10-06T22:54:05.669Z,48.74
2022-10-06T22:56:34.852Z,48.77
2022-10-06T22:59:03.134Z,48.98
2022-10-06T23:01:31.415Z,48.88
2022-10-06T23:03:59.453Z,48.89
2022-10-06T23:06:29.887Z,49.00
2022-10-06T23:08:58.318Z,49.08
2022-10-06T23:11:26.687Z,48.98
2022-10-06T23:13:54.940Z,49.17
2022-10-06T23:16:23.149Z,48.94
2022-10-06T23:18:51.319Z,49.26
2022-10-06T23:21:24.017Z,49.36
2022-10-06T23:23:56.017Z,49.28
2022-10-06T23:26:24.798Z,49.07
2022-10-06T23:28:58.698Z,49.02
2022-10-06T23:31:29.144Z,48.85
2022-10-06T23:33:57.831Z,48.84
2022-10-06T23:36:25.891Z,48.77
2022-10-06T23:38:53.770Z,48.55
2022-10-06T23:41:21.678Z,48.73
2022-10-06T23:43:49.844Z,48.66
2022-10-06T23:46:18.797Z,48.55
2022-10-06T23:48:46.770Z,48.46
2022-10-06T23:51:15.670Z,48.73
2022-10-06T23:53:44.535Z,48.58
2022-10-06T23:56:13.092Z,48.46
2022-10-06T23:58:42.649Z,48.66
